createdAt,value
2022-10-25T00:02:21.525Z,42.80
2022-10-25T00:04:49.732Z,48.35
2022-10-25T00:07:17.281Z,38.25
2022-10-25T00:09:45.128Z,44.47
2022-10-25T00:12:12.610Z,38.30
2022-10-25T00:14:40.558Z,36.33
2022-10-25T00:17:08.109Z,44.70
2022-10-25T00:19:35.815Z,50.92
2022-10-25T00:22:03.346Z,48.35
2022-10-25T00:24:31.261Z,41.70
2022-10-25T00:26:58.994Z,50.13
2022-10-25T00:29:26.874Z,40.20
2022-10-25T00:31:54.382Z,44.58
2022-10-25T00:34:22.097Z,40.55
2022-10-25T00:36:49.634Z,40.05
2022-10-25T00:39:17.474Z,39.03
2022-10-25T00:41:44.950Z,51.70
2022-10-25T00:44:40.057Z,43.40
2022-10-25T00:47:19.573Z,51.70
2022-10-25T00:49:58.906Z,45.63
2022-10-25T00:52:29.904Z,47.10
2022-10-25T00:54:58.610Z,54.55
2022-10-25T00:57:34.701Z,47.42
2022-10-25T01:00:04.463Z,43.63
2022-10-25T01:02:32.205Z,48.83
2022-10-25T01:05:00.362Z,39.28
2022-10-25T01:07:27.870Z,44.53
2022-10-25T01:09:55.916Z,45.70
2022-10-25T01:12:23.369Z,48.22
2022-10-25T01:14:52.920Z,42.95
2022-10-25T01:20:27.138Z,41.42
2022-10-25T01:23:19.370Z,45.22
2022-10-25T01:26:08.487Z,50.45
2022-10-25T01:29:18.270Z,50.35
2022-10-25T01:32:01.128Z,48.67
2022-10-25T01:34:41.331Z,54.08
2022-10-25T01:37:24.602Z,50.50
2022-10-25T01:40:39.169Z,44.90
2022-10-25T01:43:39.014Z,34.58
2022-10-25T01:46:50.504Z,37.47
2022-10-25T01:50:08.817Z,51.95
2022-10-25T01:52:36.343Z,44.90
2022-10-25T01:55:08.995Z,43.35
2022-10-25T01:58:12.217Z,50.47
2022-10-25T02:01:46.449Z,28.95
2022-10-25T02:04:25.930Z,49.60
2022-10-25T02:07:20.963Z,52.33
2022-10-25T02:10:29.511Z,38.75
2022-10-25T02:13:08.057Z,61.13
2022-10-25T02:15:40.717Z,63.17
2022-10-25T02:18:16.102Z,53.47
2022-10-25T02:20:46.820Z,40.67
2022-10-25T02:23:17.825Z,41.67
2022-10-25T02:25:47.793Z,37.67
2022-10-25T02:28:19.304Z,48.55
2022-10-25T02:30:48.002Z,47.90
2022-10-25T02:33:15.942Z,38.55
2022-10-25T02:35:43.611Z,40.45
2022-10-25T02:38:11.577Z,36.55
2022-10-25T02:40:39.180Z,39.35
2022-10-25T02:43:06.967Z,35.20
2022-10-25T02:45:34.446Z,61.70
2022-10-25T02:48:02.288Z,45.30
2022-10-25T02:50:29.754Z,45.08
2022-10-25T02:52:57.533Z,51.05
2022-10-25T02:55:24.992Z,42.67
2022-10-25T02:57:52.763Z,44.40
2022-10-25T03:00:20.336Z,53.33
2022-10-25T03:02:48.301Z,43.85
2022-10-25T03:05:16.109Z,46.33
2022-10-25T03:07:43.853Z,50.13
2022-10-25T03:10:11.543Z,43.00
2022-10-25T03:12:39.333Z,41.38
2022-10-25T03:15:07.885Z,58.70
2022-10-25T03:17:35.914Z,35.28
2022-10-25T03:20:03.826Z,36.90
2022-10-25T03:22:32.085Z,44.22
2022-10-25T03:24:59.583Z,49.47
2022-10-25T03:27:27.544Z,44.67
2022-10-25T03:29:55.097Z,46.45
2022-10-25T03:32:22.876Z,46.38
2022-10-25T03:34:50.366Z,44.88
2022-10-25T03:37:18.084Z,48.83
2022-10-25T03:39:45.684Z,50.47
2022-10-25T03:42:13.557Z,46.22
2022-10-25T03:44:41.175Z,45.28
2022-10-25T03:47:08.907Z,43.28
2022-10-25T03:49:36.645Z,47.63
2022-10-25T03:52:07.321Z,39.22
2022-10-25T03:54:35.442Z,43.65
2022-10-25T03:57:04.144Z,44.83
2022-10-25T03:59:31.666Z,48.57
2022-10-25T04:02:00.437Z,45.20
2022-10-25T04:04:28.174Z,53.75
2022-10-25T04:06:55.975Z,48.95
2022-10-25T04:09:23.485Z,46.92
2022-10-25T04:11:51.258Z,50.10
2022-10-25T04:14:18.724Z,38.72
2022-10-25T04:16:46.558Z,53.17
2022-10-25T04:19:14.117Z,40.25
2022-10-25T04:21:42.463Z,45.05
2022-10-25T04:24:10.281Z,41.30
2022-10-25T04:26:38.858Z,49.08
2022-10-25T04:29:06.828Z,31.88
2022-10-25T04:31:34.704Z,44.28
2022-10-25T04:34:02.174Z,35.58
2022-10-25T04:36:31.238Z,40.95
2022-10-25T04:38:58.849Z,42.00
2022-10-25T04:41:26.910Z,45.30
2022-10-25T04:43:54.333Z,46.65
2022-10-25T04:46:22.223Z,35.97
2022-10-25T04:48:49.919Z,43.72
2022-10-25T04:51:18.025Z,35.50
2022-10-25T04:53:45.628Z,42.47
2022-10-25T04:56:14.528Z,43.67
2022-10-25T04:58:42.331Z,35.45
2022-10-25T05:01:14.761Z,52.13
2022-10-25T05:03:42.901Z,51.70
2022-10-25T05:06:18.118Z,32.25
2022-10-25T05:08:51.065Z,31.95
2022-10-25T05:11:22.029Z,39.80
2022-10-25T05:13:49.852Z,41.10
2022-10-25T05:16:23.504Z,55.38
2022-10-25T05:18:55.107Z,35.35
2022-10-25T05:21:31.503Z,37.42
2022-10-25T05:24:02.032Z,37.58
2022-10-25T05:26:31.406Z,33.10
2022-10-25T05:28:59.174Z,41.05
2022-10-25T05:31:30.264Z,40.30
2022-10-25T05:34:01.179Z,51.15
2022-10-25T05:36:29.587Z,45.58
2022-10-25T05:38:58.336Z,40.55
2022-10-25T05:41:26.052Z,40.75
2022-10-25T05:43:53.637Z,37.47
2022-10-25T05:46:23.590Z,33.28
2022-10-25T05:48:53.710Z,30.80
2022-10-25T05:51:35.193Z,35.78
2022-10-25T05:54:12.588Z,39.53
2022-10-25T05:56:42.498Z,40.22
2022-10-25T05:59:14.373Z,35.35
2022-10-25T06:01:46.085Z,45.22
2022-10-25T06:04:15.483Z,42.58
2022-10-25T06:06:45.806Z,48.63
2022-10-25T06:09:14.310Z,33.92
2022-10-25T06:11:42.253Z,46.15
2022-10-25T06:14:11.211Z,30.20
2022-10-25T06:16:39.186Z,34.10
2022-10-25T06:19:08.106Z,25.67
2022-10-25T06:21:36.891Z,36.50
2022-10-25T06:24:04.915Z,30.25
2022-10-25T06:26:33.104Z,45.80
2022-10-25T06:29:04.125Z,26.75
2022-10-25T06:31:33.186Z,37.33
2022-10-25T06:34:02.302Z,39.83
2022-10-25T06:39:05.862Z,25.27
2022-10-25T06:41:38.650Z,25.25
2022-10-25T06:44:07.960Z,36.00
2022-10-25T06:49:27.055Z,28.02
2022-10-25T06:51:55.100Z,22.95
2022-10-25T06:54:22.730Z,22.67
2022-10-25T06:56:50.548Z,24.15
2022-10-25T06:59:19.475Z,19.25
2022-10-25T07:01:47.835Z,26.92
2022-10-25T07:04:16.044Z,29.15
2022-10-25T07:06:44.078Z,18.02
2022-10-25T07:09:13.250Z,22.73
2022-10-25T07:14:09.535Z,26.38
2022-10-25T07:16:37.606Z,17.70
2022-10-25T07:19:05.363Z,22.40
2022-10-25T07:21:33.825Z,19.75
2022-10-25T07:24:01.837Z,14.77
2022-10-25T07:26:33.849Z,9.52
2022-10-25T07:29:04.306Z,15.10
2022-10-25T07:31:38.714Z,10.32
2022-10-25T07:34:06.914Z,8.50
2022-10-25T07:36:34.899Z,9.27
2022-10-25T07:39:02.394Z,14.48
2022-10-25T07:41:30.109Z,12.93
2022-10-25T07:43:57.785Z,14.07
2022-10-25T07:46:25.825Z,11.55
2022-10-25T07:48:53.453Z,15.77
2022-10-25T07:51:21.451Z,14.02
2022-10-25T07:53:50.059Z,20.73
2022-10-25T07:56:23.172Z,21.52
2022-10-25T07:58:54.497Z,17.95
2022-10-25T08:01:26.428Z,15.68
2022-10-25T08:03:55.506Z,11.73
2022-10-25T08:06:25.525Z,20.13
2022-10-25T08:08:53.347Z,23.77
2022-10-25T08:11:21.438Z,14.38
2022-10-25T08:13:50.744Z,23.38
2022-10-25T08:16:19.069Z,18.80
2022-10-25T08:18:46.830Z,11.18
2022-10-25T08:21:15.071Z,23.67
2022-10-25T08:23:42.826Z,18.83
2022-10-25T08:26:10.845Z,18.80
2022-10-25T08:28:38.407Z,14.73
2022-10-25T08:31:06.466Z,18.25
2022-10-25T08:33:34.388Z,17.77
2022-10-25T08:36:03.023Z,9.00
2022-10-25T08:38:30.828Z,20.23
2022-10-25T08:41:17.485Z,14.77
2022-10-25T08:44:31.545Z,10.68
2022-10-25T08:47:20.105Z,19.58
2022-10-25T08:50:05.955Z,10.93
2022-10-25T08:52:48.367Z,14.13
2022-10-25T08:55:34.690Z,12.05
2022-10-25T08:58:15.517Z,11.75
2022-10-25T09:00:47.268Z,12.52
2022-10-25T09:03:26.454Z,14.65
2022-10-25T09:05:56.592Z,8.60
2022-10-25T09:08:59.713Z,9.18
2022-10-25T09:12:10.849Z,17.40
2022-10-25T09:15:32.762Z,13.55
2022-10-25T09:18:09.170Z,7.80
2022-10-25T09:20:52.237Z,24.63
2022-10-25T09:23:31.285Z,13.38
2022-10-25T09:26:23.071Z,15.23
2022-10-25T09:29:42.101Z,12.40
2022-10-25T09:32:39.706Z,14.02
2022-10-25T09:35:33.159Z,10.20
2022-10-25T09:38:11.738Z,15.75
2022-10-25T09:40:56.836Z,17.60
2022-10-25T09:43:39.603Z,14.13
2022-10-25T09:46:23.445Z,10.57
2022-10-25T09:49:02.956Z,21.50
2022-10-25T09:51:44.650Z,13.88
2022-10-25T09:55:06.781Z,18.00
2022-10-25T09:57:34.283Z,28.95
2022-10-25T10:00:02.049Z,19.00
2022-10-25T10:02:41.243Z,17.10
2022-10-25T10:05:18.227Z,11.93
2022-10-25T10:07:47.821Z,24.23
2022-10-25T10:10:32.364Z,19.23
2022-10-25T10:13:24.948Z,25.10
2022-10-25T10:16:04.813Z,23.48
2022-10-25T10:18:34.287Z,18.30
2022-10-25T10:21:14.398Z,14.35
2022-10-25T10:23:47.614Z,12.82
2022-10-25T10:26:35.305Z,19.55
2022-10-25T10:29:22.257Z,25.17
2022-10-25T10:32:00.859Z,22.05
2022-10-25T10:34:43.998Z,17.73
2022-10-25T10:37:22.063Z,20.17
2022-10-25T10:40:24.348Z,10.43
2022-10-25T10:42:54.680Z,9.93
2022-10-25T10:45:24.614Z,13.45
2022-10-25T10:47:52.189Z,11.40
2022-10-25T10:50:28.848Z,14.45
2022-10-25T10:53:02.922Z,15.60
2022-10-25T10:55:46.451Z,13.23
2022-10-25T10:58:25.291Z,10.63
2022-10-25T11:01:04.825Z,10.15
2022-10-25T11:03:37.393Z,17.33
2022-10-25T11:06:28.017Z,18.25
2022-10-25T11:09:15.720Z,7.53
2022-10-25T11:11:44.465Z,18.42
2022-10-25T11:14:16.828Z,15.20
2022-10-25T11:17:14.619Z,21.02
2022-10-25T11:20:18.683Z,12.57
2022-10-25T11:23:36.607Z,13.65
2022-10-25T11:26:15.988Z,12.40
2022-10-25T11:32:18.508Z,13.43
2022-10-25T11:35:11.115Z,9.77
2022-10-25T11:37:53.707Z,12.02
2022-10-25T11:40:35.079Z,13.60
2022-10-25T11:43:49.561Z,15.50
2022-10-25T11:46:42.148Z,18.85
2022-10-25T11:49:47.990Z,10.20
2022-10-25T11:52:33.393Z,11.93
2022-10-25T11:55:50.285Z,15.20
2022-10-25T11:58:54.677Z,8.48
2022-10-25T12:01:41.627Z,7.95
2022-10-25T12:04:40.872Z,6.47
2022-10-25T12:08:02.169Z,9.07
2022-10-25T12:10:48.084Z,4.50
2022-10-25T12:13:28.885Z,6.88
2022-10-25T12:15:58.791Z,7.22
2022-10-25T12:18:53.510Z,5.15
2022-10-25T12:21:27.956Z,5.25
2022-10-25T12:23:56.040Z,3.08
2022-10-25T12:26:30.206Z,11.35
2022-10-25T12:29:03.330Z,7.05
2022-10-25T12:31:46.344Z,7.00
2022-10-25T12:34:44.839Z,3.20
2022-10-25T12:37:57.862Z,3.63
2022-10-25T12:40:29.552Z,3.88
2022-10-25T12:43:21.616Z,2.40
2022-10-25T12:46:32.700Z,6.32
2022-10-25T12:49:46.690Z,11.57
2022-10-25T12:52:38.546Z,9.13
2022-10-25T12:55:42.805Z,6.03
2022-10-25T12:58:40.649Z,2.50
2022-10-25T13:01:15.107Z,5.75
2022-10-25T13:04:00.858Z,7.18
2022-10-25T13:06:37.734Z,3.35
2022-10-25T13:09:13.540Z,7.82
2022-10-25T13:11:48.007Z,10.20
2022-10-25T13:14:34.040Z,4.78
2022-10-25T13:17:16.910Z,12.80
2022-10-25T13:19:54.952Z,11.43
2022-10-25T13:22:35.626Z,6.17
2022-10-25T13:25:18.420Z,12.32
2022-10-25T13:28:11.765Z,9.98
2022-10-25T13:30:39.691Z,5.55
2022-10-25T13:33:21.506Z,8.00
2022-10-25T13:35:49.139Z,3.10
2022-10-25T13:38:25.004Z,5.78
2022-10-25T13:41:12.702Z,4.10
2022-10-25T13:44:06.745Z,5.00
2022-10-25T13:46:39.581Z,5.15
2022-10-25T13:49:41.039Z,6.90
2022-10-25T13:52:32.307Z,7.78
2022-10-25T13:55:02.915Z,7.68
2022-10-25T13:57:58.512Z,1.35
2022-10-25T14:00:38.351Z,5.03
2022-10-25T14:03:08.902Z,4.07
2022-10-25T14:05:55.273Z,8.60
2022-10-25T14:08:44.022Z,3.88
2022-10-25T14:11:42.386Z,5.68
2022-10-25T14:14:22.364Z,4.85
2022-10-25T14:17:27.998Z,8.95
2022-10-25T14:20:02.668Z,5.35
2022-10-25T14:22:44.100Z,1.02
2022-10-25T14:25:17.730Z,5.18
2022-10-25T14:27:45.471Z,5.20
2022-10-25T14:30:34.714Z,2.88
2022-10-25T14:33:06.289Z,3.72
2022-10-25T14:35:45.391Z,1.67
2022-10-25T14:38:28.773Z,2.67
2022-10-25T14:41:02.660Z,3.13
2022-10-25T14:43:36.951Z,8.05
2022-10-25T14:46:15.901Z,6.43
2022-10-25T14:48:46.993Z,7.18
2022-10-25T14:51:27.956Z,6.72
2022-10-25T14:54:04.283Z,11.20
2022-10-25T14:56:40.920Z,6.85
2022-10-25T14:59:50.165Z,6.63
2022-10-25T15:02:32.675Z,4.18
2022-10-25T15:05:02.433Z,7.75
2022-10-25T15:07:44.685Z,4.13
2022-10-25T15:10:30.743Z,9.82
2022-10-25T15:13:21.107Z,9.02
2022-10-25T15:15:51.415Z,9.23
2022-10-25T15:18:37.617Z,7.32
2022-10-25T15:21:17.613Z,6.10
2022-10-25T15:24:16.526Z,8.38
2022-10-25T15:27:02.652Z,7.13
2022-10-25T15:29:42.369Z,8.15
2022-10-25T15:32:19.762Z,14.68
2022-10-25T15:34:51.449Z,10.73
2022-10-25T15:37:22.232Z,14.15
2022-10-25T15:39:53.140Z,15.32
2022-10-25T15:42:23.968Z,45.17
2022-10-25T15:44:51.721Z,36.13
2022-10-25T15:47:34.644Z,25.98
2022-10-25T15:50:10.857Z,25.25
2022-10-25T15:52:38.373Z,18.95
2022-10-25T15:55:27.940Z,15.60
2022-10-25T15:57:55.550Z,16.98
2022-10-25T16:00:28.023Z,12.13
2022-10-25T16:02:57.151Z,9.00
2022-10-25T16:05:33.489Z,10.55
2022-10-25T16:08:01.618Z,9.43
2022-10-25T16:10:30.825Z,15.52
2022-10-25T16:13:04.525Z,5.10
2022-10-25T16:15:32.794Z,13.40
2022-10-25T16:18:00.637Z,5.00
2022-10-25T16:20:30.924Z,9.30
2022-10-25T16:22:58.589Z,15.70
2022-10-25T16:25:30.485Z,13.38
2022-10-25T16:28:00.924Z,12.23
2022-10-25T16:30:35.359Z,14.90
2022-10-25T16:33:04.126Z,14.82
2022-10-25T16:35:31.862Z,7.13
2022-10-25T16:37:59.672Z,10.18
2022-10-25T16:40:28.359Z,12.18
2022-10-25T16:42:58.352Z,8.83
2022-10-25T16:45:31.706Z,7.80
2022-10-25T16:47:59.782Z,9.35
2022-10-25T16:50:30.697Z,13.35
2022-10-25T16:53:01.350Z,11.38
2022-10-25T16:55:30.603Z,6.80
2022-10-25T16:57:59.868Z,12.23
2022-10-25T17:00:32.441Z,5.88
2022-10-25T17:03:00.082Z,14.73
2022-10-25T17:05:30.392Z,8.02
2022-10-25T17:07:58.073Z,18.63
2022-10-25T17:10:26.261Z,11.18
2022-10-25T17:13:03.996Z,11.80
2022-10-25T17:15:33.193Z,11.43
2022-10-25T17:18:00.719Z,11.68
2022-10-25T17:20:29.062Z,18.10
2022-10-25T17:22:57.337Z,9.13
2022-10-25T17:25:25.157Z,23.00
2022-10-25T17:27:54.066Z,10.10
2022-10-25T17:30:22.042Z,18.02
2022-10-25T17:32:50.164Z,15.88
2022-10-25T17:35:19.719Z,9.10
2022-10-25T17:37:48.111Z,28.25
2022-10-25T17:40:16.096Z,11.23
2022-10-25T17:42:43.601Z,5.70
2022-10-25T17:45:11.588Z,8.48
2022-10-25T17:47:42.601Z,17.10
2022-10-25T17:50:12.871Z,9.15
2022-10-25T17:52:42.275Z,12.32
2022-10-25T17:55:13.802Z,8.23
2022-10-25T17:57:41.336Z,4.10
2022-10-25T18:00:10.401Z,20.42
2022-10-25T18:02:44.026Z,11.20
2022-10-25T18:05:20.609Z,5.57
2022-10-25T18:07:49.535Z,10.88
2022-10-25T18:10:17.591Z,5.68
2022-10-25T18:12:46.280Z,4.13
2022-10-25T18:15:14.448Z,1.95
2022-10-25T18:17:43.166Z,2.85
2022-10-25T18:20:11.401Z,12.00
2022-10-25T18:22:38.947Z,7.32
2022-10-25T18:25:07.865Z,5.45
2022-10-25T18:27:35.748Z,5.38
2022-10-25T18:30:04.844Z,5.20
2022-10-25T18:32:36.161Z,3.03
2022-10-25T18:35:04.500Z,8.07
2022-10-25T18:37:33.020Z,7.97
2022-10-25T18:40:00.754Z,5.97
2022-10-25T18:42:28.278Z,8.20
2022-10-25T18:44:56.078Z,5.10
2022-10-25T18:47:23.752Z,5.78
2022-10-25T18:49:51.569Z,2.67
2022-10-25T18:52:19.090Z,3.13
2022-10-25T18:54:46.970Z,5.75
2022-10-25T18:57:15.636Z,2.70
2022-10-25T18:59:43.483Z,7.13
2022-10-25T19:02:11.884Z,4.47
2022-10-25T19:04:40.437Z,5.20
2022-10-25T19:07:07.894Z,4.80
2022-10-25T19:09:35.654Z,5.90
2022-10-25T19:12:03.198Z,9.77
2022-10-25T19:14:30.959Z,11.98
2022-10-25T19:16:58.481Z,5.18
2022-10-25T19:19:26.801Z,8.20
2022-10-25T19:21:55.050Z,4.07
2022-10-25T19:24:23.110Z,7.55
2022-10-25T19:26:51.029Z,7.30
2022-10-25T19:29:19.110Z,7.40
2022-10-25T19:31:46.674Z,7.63
2022-10-25T19:34:14.423Z,6.95
2022-10-25T19:36:41.945Z,7.70
2022-10-25T19:39:10.527Z,5.90
2022-10-25T19:41:38.154Z,3.57
2022-10-25T19:44:05.980Z,4.18
2022-10-25T19:46:33.638Z,4.90
2022-10-25T19:49:01.896Z,9.02
2022-10-25T19:51:44.227Z,6.03
2022-10-25T19:54:21.202Z,5.05
2022-10-25T19:57:14.273Z,6.65
2022-10-25T19:59:46.625Z,5.95
2022-10-25T20:02:14.843Z,5.03
2022-10-25T20:04:47.727Z,5.77
2022-10-25T20:07:16.755Z,7.43
2022-10-25T20:09:44.703Z,6.47
2022-10-25T20:12:12.822Z,15.05
2022-10-25T20:14:40.652Z,11.90
2022-10-25T20:17:09.054Z,4.78
2022-10-25T20:19:36.791Z,7.30
2022-10-25T20:22:05.608Z,5.28
2022-10-25T20:24:33.560Z,7.47
2022-10-25T20:27:02.708Z,8.38
2022-10-25T20:31:57.928Z,14.73
2022-10-25T20:34:25.809Z,9.27
2022-10-25T20:36:53.749Z,5.68
2022-10-25T20:39:21.543Z,6.80
2022-10-25T20:41:49.029Z,9.70
2022-10-25T20:44:57.960Z,18.55
2022-10-25T20:47:39.861Z,4.75
2022-10-25T20:50:26.363Z,8.55
2022-10-25T20:53:12.102Z,8.18
2022-10-25T20:55:45.350Z,5.80
2022-10-25T20:58:18.637Z,4.22
2022-10-25T21:01:14.841Z,7.03
2022-10-25T21:04:25.889Z,4.75
2022-10-25T21:07:51.644Z,4.20
2022-10-25T21:10:36.914Z,4.88
2022-10-25T21:14:20.785Z,4.78
2022-10-25T21:16:55.070Z,8.40
2022-10-25T21:19:29.839Z,6.80
2022-10-25T21:22:10.375Z,8.45
2022-10-25T21:24:41.939Z,9.98
2022-10-25T21:27:10.503Z,9.70
2022-10-25T21:29:38.397Z,12.77
2022-10-25T21:32:05.987Z,4.40
2022-10-25T21:34:33.759Z,5.80
2022-10-25T21:37:23.078Z,7.47
2022-10-25T21:40:01.767Z,11.00
2022-10-25T21:42:40.533Z,10.25
2022-10-25T21:45:15.214Z,4.63
2022-10-25T21:47:46.199Z,8.43
2022-10-25T21:50:23.837Z,9.15
2022-10-25T21:52:58.525Z,9.15
2022-10-25T21:55:34.077Z,9.93
2022-10-25T21:58:05.165Z,16.92
2022-10-25T22:00:36.485Z,6.35
2022-10-25T22:03:04.223Z,4.00
2022-10-25T22:05:33.329Z,5.78
2022-10-25T22:08:00.907Z,5.90
2022-10-25T22:10:29.739Z,3.77
2022-10-25T22:12:58.961Z,6.80
2022-10-25T22:15:44.570Z,5.85
2022-10-25T22:18:12.605Z,5.30
2022-10-25T22:20:42.883Z,5.47
2022-10-25T22:23:21.697Z,4.07
2022-10-25T22:25:56.494Z,5.38
2022-10-25T22:28:27.440Z,5.68
2022-10-25T22:31:07.220Z,7.20
2022-10-25T22:36:17.940Z,5.43
2022-10-25T22:38:48.246Z,4.40
2022-10-25T22:41:24.380Z,7.18
2022-10-25T22:43:52.693Z,5.20
2022-10-25T22:46:26.443Z,2.67
2022-10-25T22:48:57.282Z,6.85
2022-10-25T22:51:27.916Z,5.25
2022-10-25T22:53:55.976Z,3.15
2022-10-25T22:56:26.554Z,3.42
2022-10-25T22:58:57.536Z,3.08
2022-10-25T23:01:35.079Z,3.72
2022-10-25T23:04:06.815Z,4.78
2022-10-25T23:06:39.052Z,8.23
2022-10-25T23:09:10.677Z,7.93
2022-10-25T23:11:41.419Z,3.70
2022-10-25T23:14:14.822Z,13.40
2022-10-25T23:16:46.368Z,6.25
2022-10-25T23:19:13.996Z,7.32
2022-10-25T23:21:41.838Z,10.85
2022-10-25T23:24:09.643Z,3.45
2022-10-25T23:26:37.550Z,16.95
2022-10-25T23:29:05.900Z,6.10
2022-10-25T23:31:33.843Z,10.25
2022-10-25T23:34:01.927Z,6.32
2022-10-25T23:36:37.778Z,3.70
2022-10-25T23:39:07.661Z,3.53
2022-10-25T23:41:35.742Z,7.70
2022-10-25T23:44:03.551Z,8.45
2022-10-25T23:46:31.407Z,6.03
2022-10-25T23:48:59.013Z,8.85
2022-10-25T23:51:27.014Z,5.68
2022-10-25T23:53:54.859Z,9.40
2022-10-25T23:56:22.804Z,8.35
2022-10-25T23:58:53.738Z,9.00
